Time;durP1;ratioP1;P1;durP2;ratioP2;P2;SDS_P1;SDS_P2;PMS_P1;PMS_P2;Temp;Humidity;BMP_temperature;BMP_pressure;BME280_temperature;BME280_humidity;BME280_pressure;Samples;Min_cycle;Max_cycle;Signal;HPM_P1;HPM_P2
2021/12/13 00:00:12;;;;;;;;;;;;;;;5.92;62.39;98844.97;4986308;28;19961;-73
2021/12/13 00:02:57;;;;;;;;;;;;;;;5.90;62.98;98852.38;4972733;28;19922;-73
2021/12/13 00:05:23;;;;;;;;;;;;;;;5.88;62.31;98853.69;4984995;28;19917;-75
2021/12/13 00:07:53;;;;;;;;;;;;;;;5.86;62.42;98853.94;5011118;28;20372;-72
2021/12/13 00:10:19;;;;;;;;;;;;;;;5.84;63.04;98856.03;5008706;28;19925;-71
2021/12/13 00:12:46;;;;;;;;;;;;;;;5.82;63.59;98852.81;4991922;28;19972;-71
2021/12/13 00:15:16;;;;;;;;;;;;;;;5.82;63.20;98849.38;4991571;28;20401;-73
2021/12/13 00:17:46;;;;;;;;;;;;;;;5.78;62.65;98846.41;4974656;28;19925;-73
2021/12/13 00:20:19;;;;;;;;;;;;;;;5.70;62.46;98845.03;5006286;28;19917;-72
2021/12/13 00:22:49;;;;;;;;;;;;;;;5.68;63.17;98841.81;4982365;28;19925;-73
2021/12/13 00:25:20;;;;;;;;;;;;;;;5.69;63.82;98850.56;4991477;28;19920;-72
2021/12/13 00:27:48;;;;;;;;;;;;;;;5.66;63.70;98854.50;4991738;28;20463;-73
2021/12/13 00:30:27;;;;;;;;;;;;;;;5.66;63.21;98853.72;4991763;28;20033;-73
2021/12/13 00:33:06;;;;;;;;;;;;;;;5.64;63.96;98850.50;4992009;28;19918;-71
2021/12/13 00:36:03;;;;;;;;;;;;;;;5.60;63.17;98864.28;5005731;28;19944;-73
2021/12/13 00:38:29;;;;;;;;;;;;;;;5.57;64.17;98866.63;4966188;28;19924;-72
2021/12/13 00:41:00;;;;;;;;;;;;;;;5.58;64.10;98876.97;4994491;28;19918;-70
2021/12/13 00:43:36;;;;;;;;;;;;;;;5.55;64.14;98866.84;4984627;28;19918;-70
2021/12/13 00:46:04;;;;;;;;;;;;;;;5.56;64.08;98865.81;4980927;28;19953;-73
2021/12/13 00:48:31;;;;;;;;;;;;;;;5.57;64.70;98862.09;4981422;28;20147;-72
2021/12/13 00:51:03;;;;;;;;;;;;;;;5.51;64.66;98863.09;4979918;28;20384;-73
2021/12/13 00:53:33;;;;;;;;;;;;;;;5.48;64.65;98860.97;4992949;28;19925;-70
2021/12/13 00:55:59;;;;;;;;;;;;;;;5.48;64.89;98860.97;4984570;28;20372;-72
2021/12/13 00:58:24;;;;;;;;;;;;;;;5.48;65.03;98860.97;5012432;28;19918;-75
2021/12/13 01:00:57;;;;;;;;;;;;;;;5.48;65.01;98852.19;4996561;28;19917;-73
2021/12/13 01:03:37;;;;;;;;;;;;;;;5.47;65.22;98859.34;5006010;28;20300;-71
2021/12/13 01:06:12;;;;;;;;;;;;;;;5.48;64.97;98863.59;4977480;28;20005;-70
2021/12/13 01:08:56;;;;;;;;;;;;;;;5.44;65.59;98857.19;5003372;28;20011;-71
2021/12/13 01:11:40;;;;;;;;;;;;;;;5.41;65.77;98845.22;5007086;28;20289;-71
2021/12/13 01:14:08;;;;;;;;;;;;;;;5.40;65.49;98850.78;4987096;28;19924;-72
2021/12/13 01:16:50;;;;;;;;;;;;;;;5.36;65.71;98854.94;4977531;28;20300;-73
2021/12/13 01:21:53;;;;;;;;;;;;;;;5.32;66.40;98859.16;4999625;28;20000;-74
2021/12/13 01:24:40;;;;;;;;;;;;;;;5.31;66.77;98852.22;4990088;28;19913;-69
2021/12/13 01:27:05;;;;;;;;;;;;;;;5.26;66.46;98848.47;4997485;28;19924;-70
2021/12/13 01:29:30;;;;;;;;;;;;;;;5.22;66.60;98843.91;4977542;28;19913;-73
2021/12/13 01:32:01;;;;;;;;;;;;;;;5.19;67.76;98836.44;4980787;28;20003;-72
2021/12/13 01:34:27;;;;;;;;;;;;;;;5.18;67.56;98830.34;4994234;28;19966;-72
2021/12/13 01:39:51;;;;;;;;;;;;;;;5.12;66.96;98842.72;5002651;28;19918;-73
2021/12/13 01:42:19;;;;;;;;;;;;;;;5.12;67.51;98839.28;5006387;28;20353;-73
2021/12/13 01:44:45;;;;;;;;;;;;;;;5.11;67.89;98842.97;4994355;28;20017;-73
2021/12/13 01:47:17;;;;;;;;;;;;;;;5.07;68.25;98840.00;4976938;28;19917;-72
2021/12/13 01:49:44;;;;;;;;;;;;;;;5.03;68.33;98830.13;4998565;28;19924;-72
2021/12/13 01:52:36;;;;;;;;;;;;;;;4.96;68.25;98844.34;5005908;28;19917;-71
2021/12/13 01:55:05;;;;;;;;;;;;;;;4.94;69.16;98850.94;5001927;28;20328;-70
2021/12/13 01:57:47;;;;;;;;;;;;;;;4.93;69.85;98858.09;5013872;28;19917;-71
2021/12/13 02:00:19;;;;;;;;;;;;;;;4.92;70.38;98853.84;5002298;28;19945;-70
2021/12/13 02:02:45;;;;;;;;;;;;;;;4.90;70.79;98855.13;4996204;28;19918;-71
2021/12/13 02:05:11;;;;;;;;;;;;;;;4.86;71.26;98854.00;4976350;28;19914;-70
2021/12/13 02:07:43;;;;;;;;;;;;;;;4.83;71.24;98844.69;4994980;28;20432;-70
2021/12/13 02:10:15;;;;;;;;;;;;;;;4.80;70.87;98847.84;4980721;28;19971;-70
2021/12/13 02:12:43;;;;;;;;;;;;;;;4.78;71.68;98853.38;4995619;28;20365;-70
2021/12/13 02:17:53;;;;;;;;;;;;;;;4.77;71.80;98859.75;4994028;28;19924;-70
2021/12/13 02:20:39;;;;;;;;;;;;;;;4.74;71.82;98860.22;4998119;28;19917;-70
2021/12/13 02:23:05;;;;;;;;;;;;;;;4.73;72.00;98863.91;5010838;28;19975;-70
2021/12/13 02:25:42;;;;;;;;;;;;;;;4.73;72.05;98865.75;5002277;28;19917;-71
2021/12/13 02:28:12;;;;;;;;;;;;;;;4.72;72.47;98872.88;4995378;28;19981;-72
2021/12/13 02:30:48;;;;;;;;;;;;;;;4.74;72.59;98881.41;4988106;28;19921;-71
2021/12/13 02:33:19;;;;;;;;;;;;;;;4.76;72.51;98876.66;4993283;28;19964;-71
2021/12/13 02:35:53;;;;;;;;;;;;;;;4.73;72.76;98876.34;4994065;28;20416;-72
2021/12/13 02:38:18;;;;;;;;;;;;;;;4.74;72.87;98870.00;5003995;28;19918;-70
2021/12/13 02:40:44;;;;;;;;;;;;;;;4.71;73.80;98868.66;4981885;28;19925;-71
2021/12/13 02:43:12;;;;;;;;;;;;;;;4.70;74.08;98867.03;5007946;28;19917;-72
2021/12/13 02:45:43;;;;;;;;;;;;;;;4.69;73.45;98861.97;4982463;28;20013;-72
2021/12/13 02:48:13;;;;;;;;;;;;;;;4.68;73.33;98873.63;4993418;28;19918;-72
2021/12/13 02:50:42;;;;;;;;;;;;;;;4.64;73.63;98874.09;4993523;28;19925;-72
2021/12/13 02:53:08;;;;;;;;;;;;;;;4.60;74.28;98872.97;4976850;28;19922;-72
2021/12/13 02:55:33;;;;;;;;;;;;;;;4.61;75.33;98871.13;4993182;28;19943;-71
2021/12/13 02:58:00;;;;;;;;;;;;;;;4.55;75.67;98874.75;4997588;28;19939;-74
2021/12/13 03:00:32;;;;;;;;;;;;;;;4.51;76.25;98870.97;4992822;28;19917;-71
2021/12/13 03:02:59;;;;;;;;;;;;;;;4.49;76.94;98874.66;4993304;28;19917;-72
2021/12/13 03:05:35;;;;;;;;;;;;;;;4.43;77.83;98872.16;4975260;28;20378;-72
2021/12/13 03:08:13;;;;;;;;;;;;;;;4.40;78.32;98870.00;4976200;28;20359;-72
2021/12/13 03:10:43;;;;;;;;;;;;;;;4.32;79.25;98871.19;4992215;28;19924;-72
2021/12/13 03:13:09;;;;;;;;;;;;;;;4.24;79.34;98874.25;4992906;28;19914;-71
2021/12/13 03:15:36;;;;;;;;;;;;;;;4.22;79.54;98874.44;4995873;28;19920;-71
2021/12/13 03:18:07;;;;;;;;;;;;;;;4.16;80.27;98872.75;5012612;28;19974;-71
2021/12/13 03:20:33;;;;;;;;;;;;;;;4.14;80.26;98880.16;5012363;28;19918;-73
2021/12/13 03:23:01;;;;;;;;;;;;;;;4.13;80.34;98884.63;4990983;28;19914;-71
2021/12/13 03:25:33;;;;;;;;;;;;;;;4.10;80.70;98887.75;4992415;28;19921;-74
2021/12/13 03:28:09;;;;;;;;;;;;;;;4.09;80.73;98886.16;4975507;28;20378;-71
2021/12/13 03:30:37;;;;;;;;;;;;;;;4.07;80.60;98882.13;4992610;28;20361;-73
2021/12/13 03:33:11;;;;;;;;;;;;;;;4.06;81.05;98888.47;5000342;28;20032;-71
2021/12/13 03:35:53;;;;;;;;;;;;;;;4.04;81.18;98878.13;4994311;28;19917;-71
2021/12/13 03:38:27;;;;;;;;;;;;;;;3.99;80.74;98884.13;4986629;28;19960;-69
2021/12/13 03:40:56;;;;;;;;;;;;;;;4.01;81.23;98891.81;4989589;28;20331;-70
2021/12/13 03:43:32;;;;;;;;;;;;;;;3.95;80.75;98896.19;5011667;28;19967;-72
2021/12/13 03:46:02;;;;;;;;;;;;;;;3.96;80.87;98899.66;4990080;28;19924;-70
2021/12/13 03:48:29;;;;;;;;;;;;;;;3.94;80.49;98894.63;5004482;28;20021;-74
2021/12/13 03:50:56;;;;;;;;;;;;;;;3.92;80.49;98899.34;5011477;28;19961;-74
2021/12/13 03:53:25;;;;;;;;;;;;;;;3.93;80.34;98900.94;5003832;28;19918;-74
2021/12/13 03:55:52;;;;;;;;;;;;;;;3.96;80.11;98903.09;4991830;28;19996;-74
2021/12/13 03:58:20;;;;;;;;;;;;;;;3.99;80.19;98904.47;4989162;28;19921;-72
2021/12/13 04:00:51;;;;;;;;;;;;;;;3.96;80.92;98892.53;4991927;28;19913;-73
2021/12/13 04:03:17;;;;;;;;;;;;;;;3.98;80.79;98889.66;4994636;28;19917;-73
2021/12/13 04:05:43;;;;;;;;;;;;;;;3.98;80.41;98887.00;4983052;28;19918;-73
2021/12/13 04:08:11;;;;;;;;;;;;;;;3.98;80.98;98893.09;4973473;28;20309;-73
2021/12/13 04:10:39;;;;;;;;;;;;;;;3.97;80.97;98888.84;4971000;28;20357;-73
2021/12/13 04:13:11;;;;;;;;;;;;;;;3.95;81.27;98887.47;4972708;28;19918;-73
2021/12/13 04:16:10;;;;;;;;;;;;;;;3.90;81.01;98893.47;4971223;28;19918;-73
2021/12/13 04:19:06;;;;;;;;;;;;;;;3.89;81.32;98891.84;4979595;28;19917;-75
2021/12/13 04:21:35;;;;;;;;;;;;;;;3.88;81.07;98892.88;4972236;28;20298;-70
2021/12/13 04:24:03;;;;;;;;;;;;;;;3.89;81.14;98894.50;4991792;28;19918;-70
2021/12/13 04:26:29;;;;;;;;;;;;;;;3.92;80.89;98894.03;4991153;28;20378;-71
2021/12/13 04:28:57;;;;;;;;;;;;;;;3.94;80.52;98897.28;4975335;28;20382;-71
2021/12/13 04:31:24;;;;;;;;;;;;;;;3.98;80.44;98898.38;4975915;28;20348;-72
2021/12/13 04:33:52;;;;;;;;;;;;;;;3.99;79.96;98901.81;4977471;28;19925;-72
2021/12/13 04:36:26;;;;;;;;;;;;;;;4.01;80.21;98899.75;4986776;28;19918;-72
2021/12/13 04:39:13;;;;;;;;;;;;;;;4.02;80.36;98896.06;4989366;28;19917;-69
2021/12/13 04:41:42;;;;;;;;;;;;;;;4.05;80.01;98895.59;4976062;28;19973;-69
2021/12/13 04:44:10;;;;;;;;;;;;;;;4.02;79.67;98898.72;4979129;28;19918;-70
2021/12/13 04:46:37;;;;;;;;;;;;;;;4.05;79.53;98892.94;4988797;28;19918;-70
2021/12/13 04:49:13;;;;;;;;;;;;;;;4.00;79.52;98891.03;4987629;28;20312;-71
2021/12/13 04:51:43;;;;;;;;;;;;;;;3.99;79.60;98886.78;4979393;28;19940;-70
2021/12/13 04:54:10;;;;;;;;;;;;;;;3.99;79.70;98886.78;4976366;28;19925;-71
2021/12/13 04:56:35;;;;;;;;;;;;;;;3.95;79.66;98893.56;4994449;28;19922;-71
2021/12/13 04:59:02;;;;;;;;;;;;;;;3.95;79.95;98892.75;4991283;28;19918;-70
2021/12/13 05:01:28;;;;;;;;;;;;;;;3.91;79.85;98897.72;4987978;28;19926;-71
2021/12/13 05:03:57;;;;;;;;;;;;;;;3.90;79.88;98892.69;4978927;28;19948;-73
2021/12/13 05:06:25;;;;;;;;;;;;;;;3.89;79.64;98893.72;5005666;28;20369;-73
2021/12/13 05:08:56;;;;;;;;;;;;;;;3.90;79.61;98896.13;4997356;28;19913;-73
2021/12/13 05:11:23;;;;;;;;;;;;;;;3.90;79.65;98890.81;4995359;28;19953;-69
2021/12/13 05:13:53;;;;;;;;;;;;;;;3.90;78.76;98895.31;4993540;28;20384;-69
2021/12/13 05:16:25;;;;;;;;;;;;;;;3.89;78.68;98893.72;4999464;28;20459;-70
2021/12/13 05:18:51;;;;;;;;;;;;;;;3.92;78.50;98894.03;4997154;28;19921;-70
2021/12/13 05:21:24;;;;;;;;;;;;;;;3.93;78.22;98895.66;5012497;28;19922;-70
2021/12/13 05:23:51;;;;;;;;;;;;;;;3.96;78.27;98892.53;4995921;28;19987;-69
2021/12/13 05:26:28;;;;;;;;;;;;;;;4.00;77.89;98896.31;4994817;28;19921;-69
2021/12/13 05:28:53;;;;;;;;;;;;;;;4.04;77.44;98903.78;4994696;28;19920;-70
2021/12/13 05:31:23;;;;;;;;;;;;;;;4.05;76.85;98905.38;4977213;28;19918;-71
2021/12/13 05:33:50;;;;;;;;;;;;;;;4.05;76.24;98908.03;4993848;28;19914;-71
2021/12/13 05:36:22;;;;;;;;;;;;;;;4.04;76.07;98919.66;5005797;28;19925;-72
2021/12/13 05:38:48;;;;;;;;;;;;;;;4.04;76.39;98928.41;4994712;28;19972;-72
2021/12/13 05:41:21;;;;;;;;;;;;;;;4.04;76.27;98928.41;4994674;28;20004;-72
2021/12/13 05:43:48;;;;;;;;;;;;;;;4.05;76.29;98930.00;4977108;28;19945;-72
2021/12/13 05:46:19;;;;;;;;;;;;;;;3.97;76.28;98919.81;4994379;28;19946;-71
2021/12/13 05:48:48;;;;;;;;;;;;;;;4.07;76.00;98921.84;4993360;28;19914;-71
2021/12/13 05:51:34;;;;;;;;;;;;;;;4.06;75.92;98928.97;4994623;28;19914;-73
2021/12/13 05:53:59;;;;;;;;;;;;;;;4.05;76.12;98934.50;4977058;28;19936;-71
2021/12/13 05:56:37;;;;;;;;;;;;;;;4.04;76.01;98933.69;4976584;28;20008;-71
2021/12/13 05:59:12;;;;;;;;;;;;;;;4.06;75.58;98931.59;4994687;28;19972;-71
2021/12/13 06:01:41;;;;;;;;;;;;;;;4.01;75.80;98934.94;4976658;28;20008;-71
2021/12/13 06:04:06;;;;;;;;;;;;;;;3.98;75.95;98927.50;4994278;28;19914;-71
2021/12/13 06:06:32;;;;;;;;;;;;;;;4.00;75.90;98929.91;4993774;28;20400;-72
2021/12/13 06:08:58;;;;;;;;;;;;;;;4.03;75.96;98934.75;4976809;28;20332;-72
2021/12/13 06:11:32;;;;;;;;;;;;;;;4.03;75.47;98936.56;4993992;28;19913;-72
2021/12/13 06:14:03;;;;;;;;;;;;;;;4.06;75.97;98938.75;4994181;28;19988;-72
2021/12/13 06:16:47;;;;;;;;;;;;;;;4.06;75.75;98944.84;4993913;28;19913;-72
2021/12/13 06:19:20;;;;;;;;;;;;;;;4.06;75.80;98951.97;4976216;28;19914;-72
2021/12/13 06:22:15;;;;;;;;;;;;;;;4.07;76.03;98954.38;4976389;28;19968;-72
2021/12/13 06:24:46;;;;;;;;;;;;;;;4.10;76.08;98972.47;4984874;28;19924;-70
2021/12/13 06:27:23;;;;;;;;;;;;;;;4.12;76.19;98978.31;4993609;28;19913;-72
2021/12/13 06:29:50;;;;;;;;;;;;;;;4.12;75.88;98978.31;4993853;28;19929;-70
2021/12/13 06:32:31;;;;;;;;;;;;;;;4.13;75.90;98974.63;4976311;28;19913;-71
2021/12/13 06:34:59;;;;;;;;;;;;;;;4.16;75.68;98981.28;4993728;28;19914;-72
2021/12/13 06:37:33;;;;;;;;;;;;;;;4.16;76.34;98984.75;4993444;28;19914;-72
2021/12/13 06:40:29;;;;;;;;;;;;;;;4.15;75.31;98982.31;4993933;28;20355;-72
2021/12/13 06:42:58;;;;;;;;;;;;;;;4.12;75.97;98991.53;4984651;28;19914;-72
2021/12/13 06:45:34;;;;;;;;;;;;;;;4.11;76.25;98984.66;4975616;28;19913;-72
2021/12/13 06:48:00;;;;;;;;;;;;;;;4.10;76.80;98983.03;4993323;28;19945;-72
2021/12/13 06:50:28;;;;;;;;;;;;;;;4.12;77.34;98983.59;4993348;28;19936;-72
2021/12/13 06:53:09;;;;;;;;;;;;;;;4.07;78.06;98985.34;4993431;28;19936;-73
2021/12/13 06:55:34;;;;;;;;;;;;;;;4.03;79.06;98982.38;4992965;28;20333;-72
2021/12/13 06:58:00;;;;;;;;;;;;;;;3.98;79.64;98996.28;4993162;28;19921;-73
2021/12/13 07:00:26;;;;;;;;;;;;;;;3.96;80.39;98994.94;4992917;28;19936;-72
2021/12/13 07:02:54;;;;;;;;;;;;;;;3.96;81.29;99001.00;4992866;28;20024;-72
2021/12/13 07:05:20;;;;;;;;;;;;;;;3.94;82.01;99008.41;4992898;28;20076;-73
2021/12/13 07:07:57;;;;;;;;;;;;;;;3.95;82.41;99003.91;4992739;28;20008;-72
2021/12/13 07:10:33;;;;;;;;;;;;;;;3.92;83.03;99007.81;4992679;28;19917;-72
2021/12/13 07:13:04;;;;;;;;;;;;;;;3.89;83.18;99002.97;4992169;28;19914;-72
2021/12/13 07:15:35;;;;;;;;;;;;;;;3.84;83.72;98998.41;4991967;28;20300;-72
2021/12/13 07:18:05;;;;;;;;;;;;;;;3.78;84.15;99004.59;4992344;28;19920;-72
2021/12/13 07:20:39;;;;;;;;;;;;;;;3.71;84.68;98989.91;4991818;28;20004;-72
2021/12/13 07:23:04;;;;;;;;;;;;;;;3.65;85.71;99000.38;4974806;28;19920;-73
2021/12/13 07:25:34;;;;;;;;;;;;;;;3.66;85.99;99003.81;4991836;28;19914;-72
2021/12/13 07:28:02;;;;;;;;;;;;;;;3.64;86.05;99008.53;4992175;28;19914;-72
2021/12/13 07:30:29;;;;;;;;;;;;;;;3.63;86.60;99023.59;4974408;28;19992;-72
2021/12/13 07:32:58;;;;;;;;;;;;;;;3.61;87.01;99030.94;4992535;28;19995;-72
2021/12/13 07:35:47;;;;;;;;;;;;;;;3.59;87.35;99033.03;4992745;28;19913;-72
2021/12/13 07:38:18;;;;;;;;;;;;;;;3.57;87.66;99035.09;4992659;28;19913;-72
2021/12/13 07:40:48;;;;;;;;;;;;;;;3.54;87.74;99040.84;4992178;28;19977;-72
2021/12/13 07:43:14;;;;;;;;;;;;;;;3.52;88.28;99049.00;4991257;28;19917;-72
2021/12/13 07:45:45;;;;;;;;;;;;;;;3.52;88.23;99048.22;4974655;28;19914;-72
2021/12/13 07:48:17;;;;;;;;;;;;;;;3.51;88.90;99047.38;4992503;28;19913;-72
2021/12/13 07:50:44;;;;;;;;;;;;;;;3.53;88.88;99057.75;4992164;28;19921;-72
2021/12/13 07:53:11;;;;;;;;;;;;;;;3.54;89.00;99054.06;4992371;28;19914;-72
2021/12/13 07:55:41;;;;;;;;;;;;;;;3.52;89.32;99056.94;4974705;28;20385;-72
2021/12/13 07:58:07;;;;;;;;;;;;;;;3.49;89.27;99062.69;4974401;28;19914;-72
2021/12/13 08:00:36;;;;;;;;;;;;;;;3.42;89.77;99062.00;4992468;28;19939;-72
2021/12/13 08:03:06;;;;;;;;;;;;;;;3.42;90.57;99071.75;4974870;28;19921;-72
2021/12/13 08:05:37;;;;;;;;;;;;;;;3.41;90.40;99070.16;4991592;28;19917;-72
2021/12/13 08:08:03;;;;;;;;;;;;;;;3.42;90.62;99079.69;4992308;28;19949;-72
2021/12/13 08:10:30;;;;;;;;;;;;;;;3.40;90.19;99077.28;4991695;28;19963;-72
2021/12/13 08:13:00;;;;;;;;;;;;;;;3.39;90.37;99080.94;4992209;28;19914;-72
2021/12/13 08:15:28;;;;;;;;;;;;;;;3.39;90.36;99080.94;4991954;28;19917;-72
2021/12/13 08:17:56;;;;;;;;;;;;;;;3.38;90.14;99063.47;5007299;28;19914;-71
2021/12/13 08:20:24;;;;;;;;;;;;;;;3.37;90.76;99069.81;4991763;28;19921;-71
2021/12/13 08:22:50;;;;;;;;;;;;;;;3.36;90.75;99073.47;4991556;28;20435;-71
2021/12/13 08:25:20;;;;;;;;;;;;;;;3.37;91.08;99083.03;4992030;28;19913;-71
2021/12/13 08:27:51;;;;;;;;;;;;;;;3.36;90.91;99079.56;4992175;28;19914;-71
2021/12/13 08:30:22;;;;;;;;;;;;;;;3.36;91.02;99082.19;4991771;28;19914;-71
2021/12/13 08:32:59;;;;;;;;;;;;;;;3.38;91.40;99084.63;4991749;28;20253;-71
2021/12/13 08:35:25;;;;;;;;;;;;;;;3.41;91.74;99088.66;4991647;28;20377;-72
2021/12/13 08:37:58;;;;;;;;;;;;;;;3.38;91.97;99083.81;4991515;28;19921;-72
2021/12/13 08:40:28;;;;;;;;;;;;;;;3.40;92.13;99084.41;4974092;28;19913;-71
2021/12/13 08:42:54;;;;;;;;;;;;;;;3.41;92.45;99088.66;4991909;28;19913;-71
2021/12/13 08:45:32;;;;;;;;;;;;;;;3.40;92.56;99082.56;4991400;28;19997;-72
2021/12/13 08:47:57;;;;;;;;;;;;;;;3.40;92.32;99089.69;4991813;28;19975;-71
2021/12/13 08:50:32;;;;;;;;;;;;;;;3.42;92.58;99093.72;4974437;28;20000;-72
2021/12/13 08:53:03;;;;;;;;;;;;;;;3.43;92.35;99094.50;4991556;28;19917;-73
2021/12/13 08:55:31;;;;;;;;;;;;;;;3.44;92.26;99089.03;4991845;28;19920;-71
2021/12/13 08:58:14;;;;;;;;;;;;;;;3.46;92.40;99089.56;4974348;28;20290;-73
2021/12/13 09:01:00;;;;;;;;;;;;;;;3.48;92.72;99092.00;4991597;28;19914;-71
2021/12/13 09:03:34;;;;;;;;;;;;;;;3.50;92.70;99095.22;4974360;28;19957;-73
2021/12/13 09:06:18;;;;;;;;;;;;;;;3.52;92.60;99090.50;4991416;28;20448;-72
2021/12/13 09:08:43;;;;;;;;;;;;;;;3.46;92.80;99094.88;4993888;28;19914;-73
2021/12/13 09:11:15;;;;;;;;;;;;;;;3.46;93.07;99096.72;4995104;28;19914;-73
2021/12/13 09:13:41;;;;;;;;;;;;;;;3.49;93.14;99094.41;4977667;28;19936;-73
2021/12/13 09:16:07;;;;;;;;;;;;;;;3.45;92.82;99085.31;4995281;28;20362;-73
2021/12/13 09:18:32;;;;;;;;;;;;;;;3.47;93.10;99079.81;4994970;28;19940;-71
2021/12/13 09:20:58;;;;;;;;;;;;;;;3.47;93.40;99083.25;4995241;28;20388;-73
2021/12/13 09:23:23;;;;;;;;;;;;;;;3.46;93.00;99089.56;4995476;28;19914;-73
2021/12/13 09:25:50;;;;;;;;;;;;;;;3.46;93.39;99086.13;4994756;28;20357;-72
2021/12/13 09:28:17;;;;;;;;;;;;;;;3.45;93.38;99079.22;4995187;28;19913;-73
2021/12/13 09:30:45;;;;;;;;;;;;;;;3.44;93.36;99080.25;4993453;28;20396;-72
2021/12/13 09:33:29;;;;;;;;;;;;;;;3.46;93.28;99081.66;4994735;28;19913;-73
2021/12/13 09:36:06;;;;;;;;;;;;;;;3.48;93.34;99089.38;5009762;28;20381;-72
2021/12/13 09:38:34;;;;;;;;;;;;;;;3.47;93.00;99082.47;4994925;28;19921;-73
2021/12/13 09:41:04;;;;;;;;;;;;;;;3.49;93.74;99078.56;4995151;28;19971;-73
2021/12/13 09:43:35;;;;;;;;;;;;;;;3.48;93.34;99079.59;4994495;28;19918;-73
2021/12/13 09:46:00;;;;;;;;;;;;;;;3.45;93.37;99074.75;4994573;28;19914;-72
2021/12/13 09:48:32;;;;;;;;;;;;;;;3.47;93.53;99070.03;4994667;28;20594;-72
2021/12/13 09:51:00;;;;;;;;;;;;;;;3.46;93.75;99071.06;4976968;28;19917;-72
2021/12/13 09:53:31;;;;;;;;;;;;;;;3.47;94.07;99079.81;4976857;28;19921;-72
2021/12/13 09:55:57;;;;;;;;;;;;;;;3.42;93.59;99064.63;4976842;28;19913;-70
2021/12/13 09:58:27;;;;;;;;;;;;;;;3.41;93.64;99075.44;4994161;28;20377;-72
2021/12/13 10:00:52;;;;;;;;;;;;;;;3.39;93.83;99074.84;4994234;28;19920;-72
2021/12/13 10:03:21;;;;;;;;;;;;;;;3.38;93.80;99076.69;4994205;28;19913;-71
2021/12/13 10:05:50;;;;;;;;;;;;;;;3.35;93.25;99075.31;4993988;28;19997;-72
2021/12/13 10:08:18;;;;;;;;;;;;;;;3.32;93.71;99072.31;4994445;28;19961;-72
2021/12/13 10:10:46;;;;;;;;;;;;;;;3.33;93.94;99074.75;4976625;28;19996;-72
2021/12/13 10:13:21;;;;;;;;;;;;;;;3.36;94.01;99074.28;4993005;28;19913;-72
2021/12/13 10:15:52;;;;;;;;;;;;;;;3.36;93.69;99068.97;4993974;28;19913;-72
2021/12/13 10:18:22;;;;;;;;;;;;;;;3.35;93.65;99067.38;4976698;28;20285;-72
2021/12/13 10:20:59;;;;;;;;;;;;;;;3.36;93.83;99065.56;4993402;28;20622;-72
2021/12/13 10:23:27;;;;;;;;;;;;;;;3.36;93.99;99062.91;4994107;28;19918;-72
2021/12/13 10:25:54;;;;;;;;;;;;;;;3.36;94.06;99063.69;4992511;28;19918;-72
2021/12/13 10:28:21;;;;;;;;;;;;;;;3.35;93.81;99061.28;4993923;28;19997;-72
2021/12/13 10:30:49;;;;;;;;;;;;;;;3.34;93.89;99062.31;4976181;28;20316;-72
2021/12/13 10:33:15;;;;;;;;;;;;;;;3.33;93.78;99064.16;4993940;28;19913;-72
2021/12/13 10:35:42;;;;;;;;;;;;;;;3.31;93.66;99066.22;4993568;28;19914;-72
2021/12/13 10:38:10;;;;;;;;;;;;;;;3.28;93.65;99066.66;4993772;28;19924;-72
2021/12/13 10:40:38;;;;;;;;;;;;;;;3.28;94.35;99073.81;4976078;28;19945;-72
2021/12/13 10:43:06;;;;;;;;;;;;;;;3.29;94.08;99068.28;4993734;28;19914;-72
2021/12/13 10:45:34;;;;;;;;;;;;;;;3.28;93.91;99071.94;4993263;28;19913;-72
2021/12/13 10:48:03;;;;;;;;;;;;;;;3.27;93.89;99057.16;4976141;28;20302;-72
2021/12/13 10:50:31;;;;;;;;;;;;;;;3.27;94.48;99061.63;4993334;28;20016;-72
2021/12/13 10:52:58;;;;;;;;;;;;;;;3.26;93.72;99062.66;4993599;28;19913;-72
2021/12/13 10:55:29;;;;;;;;;;;;;;;3.25;94.12;99061.84;4993442;28;19963;-72
2021/12/13 10:57:54;;;;;;;;;;;;;;;3.28;94.21;99055.31;4993012;28;19949;-72
2021/12/13 11:00:22;;;;;;;;;;;;;;;3.28;94.16;99057.94;4993078;28;20348;-72
2021/12/13 11:02:51;;;;;;;;;;;;;;;3.30;94.50;99061.19;4993115;28;19917;-71
2021/12/13 11:05:18;;;;;;;;;;;;;;;3.29;94.02;99055.06;4992941;28;19914;-71
2021/12/13 11:07:44;;;;;;;;;;;;;;;3.27;94.09;99062.44;4992937;28;19917;-72
2021/12/13 11:10:13;;;;;;;;;;;;;;;3.25;93.53;99051.28;4975703;28;19944;-72
2021/12/13 11:12:41;;;;;;;;;;;;;;;3.25;93.53;99063.66;4992876;28;19914;-72
2021/12/13 11:15:09;;;;;;;;;;;;;;;3.27;93.70;99059.78;4975599;28;19914;-72
2021/12/13 11:17:35;;;;;;;;;;;;;;;3.27;93.76;99051.88;4993114;28;19921;-72
2021/12/13 11:20:06;;;;;;;;;;;;;;;3.25;93.84;99051.28;4992768;28;19965;-72
2021/12/13 11:22:32;;;;;;;;;;;;;;;3.26;93.81;99052.91;4975464;28;19972;-72
2021/12/13 11:25:00;;;;;;;;;;;;;;;3.28;93.89;99052.66;4991187;28;19924;-72
2021/12/13 11:27:30;;;;;;;;;;;;;;;3.27;93.57;99049.22;4975201;28;20297;-72
2021/12/13 11:29:55;;;;;;;;;;;;;;;3.29;93.79;99043.69;4991273;28;19914;-72
2021/12/13 11:32:39;;;;;;;;;;;;;;;3.30;93.71;99047.97;4974414;28;19914;-72
2021/12/13 11:35:04;;;;;;;;;;;;;;;3.31;93.86;99052.22;4992736;28;20008;-72
2021/12/13 11:37:29;;;;;;;;;;;;;;;3.33;93.45;99047.50;4992378;28;19960;-72
2021/12/13 11:40:13;;;;;;;;;;;;;;;3.34;93.74;99044.63;4992394;28;19968;-73
2021/12/13 11:42:45;;;;;;;;;;;;;;;3.38;93.57;99036.25;4992345;28;20296;-72
2021/12/13 11:45:28;;;;;;;;;;;;;;;3.40;93.75;99047.41;4974905;28;20491;-72
2021/12/13 11:48:12;;;;;;;;;;;;;;;3.42;93.57;99042.66;4992000;28;19935;-72
2021/12/13 11:50:56;;;;;;;;;;;;;;;3.44;93.79;99048.53;4992529;28;19924;-72
2021/12/13 11:53:40;;;;;;;;;;;;;;;3.45;93.29;99045.66;5006835;28;19914;-74
2021/12/13 11:56:26;;;;;;;;;;;;;;;3.47;93.74;99048.88;4975020;28;19914;-73
2021/12/13 11:59:03;;;;;;;;;;;;;;;3.48;93.90;99033.84;4991974;28;19913;-74
2021/12/13 12:01:43;;;;;;;;;;;;;;;3.50;93.40;99042.34;4991949;28;20367;-74
2021/12/13 12:04:27;;;;;;;;;;;;;;;3.51;93.44;99050.03;4992279;28;20064;-72
2021/12/13 12:07:28;;;;;;;;;;;;;;;3.52;93.36;99050.84;4991008;28;19917;-71
2021/12/13 12:09:56;;;;;;;;;;;;;;;3.52;93.36;99046.34;4950507;29;19918;-73
2021/12/13 12:12:43;;;;;;;;;;;;;;;3.53;93.29;99049.81;4983510;28;19913;-72
2021/12/13 12:15:09;;;;;;;;;;;;;;;3.54;93.31;99056.72;4991560;28;19914;-72
2021/12/13 12:17:35;;;;;;;;;;;;;;;3.52;92.81;99048.22;4974093;28;19961;-72
2021/12/13 12:20:01;;;;;;;;;;;;;;;3.50;93.01;99056.38;4991187;28;19968;-72
2021/12/13 12:22:45;;;;;;;;;;;;;;;3.47;93.40;99056.81;4991440;28;19914;-72
2021/12/13 12:25:10;;;;;;;;;;;;;;;3.44;93.25;99054.66;5006361;28;19925;-72
2021/12/13 12:27:36;;;;;;;;;;;;;;;3.44;93.31;99056.47;4991263;28;20324;-73
2021/12/13 12:30:07;;;;;;;;;;;;;;;3.41;93.31;99060.38;4990989;28;19918;-73
2021/12/13 12:32:34;;;;;;;;;;;;;;;3.40;93.01;99058.75;4991505;28;19917;-72
2021/12/13 12:34:59;;;;;;;;;;;;;;;3.39;93.01;99065.06;4991099;28;19972;-72
2021/12/13 12:37:48;;;;;;;;;;;;;;;3.39;93.01;99064.28;4991311;28;20366;-72
2021/12/13 12:40:22;;;;;;;;;;;;;;;3.31;92.74;99066.22;4990809;28;19914;-72
2021/12/13 12:42:50;;;;;;;;;;;;;;;3.26;93.23;99070.56;4974554;28;19917;-72
2021/12/13 12:45:17;;;;;;;;;;;;;;;3.26;93.17;99066.09;4995336;28;19913;-72
2021/12/13 12:47:57;;;;;;;;;;;;;;;3.22;93.55;99062.28;4995837;28;19936;-72
2021/12/13 12:50:26;;;;;;;;;;;;;;;3.22;93.50;99054.38;4995792;28;19913;-72
2021/12/13 12:52:54;;;;;;;;;;;;;;;3.18;93.40;99051.38;4995066;28;19913;-72
2021/12/13 12:55:22;;;;;;;;;;;;;;;3.17;93.46;99057.72;4995418;28;20008;-73
2021/12/13 12:57:48;;;;;;;;;;;;;;;3.13;93.67;99061.03;4994109;28;19917;-73
2021/12/13 13:00:13;;;;;;;;;;;;;;;3.09;93.79;99065.97;4995962;28;20411;-73
2021/12/13 13:02:39;;;;;;;;;;;;;;;3.11;93.88;99066.53;4993980;28;19913;-73
2021/12/13 13:05:05;;;;;;;;;;;;;;;3.09;93.82;99065.97;4995590;28;19924;-73
2021/12/13 13:07:32;;;;;;;;;;;;;;;3.01;94.04;99059.13;4994957;28;20405;-73
2021/12/13 13:10:23;;;;;;;;;;;;;;;3.04;94.49;99063.19;4995202;28;19918;-73
2021/12/13 13:12:49;;;;;;;;;;;;;;;3.02;94.17;99059.97;4977792;28;19956;-73
2021/12/13 13:15:27;;;;;;;;;;;;;;;3.01;94.70;99069.72;4995089;28;19914;-72
2021/12/13 13:18:03;;;;;;;;;;;;;;;3.02;94.59;99068.69;4994465;28;19914;-73
2021/12/13 13:20:32;;;;;;;;;;;;;;;3.02;94.76;99075.81;4995317;28;19936;-73
2021/12/13 13:22:58;;;;;;;;;;;;;;;3.03;94.83;99080.06;4994694;28;19914;-73
2021/12/13 13:25:26;;;;;;;;;;;;;;;3.03;94.54;99080.88;4994824;28;19921;-73